sensor_id;sensor_type;location;lat;lon;timestamp;P1;durP1;ratioP1;P2;durP2;ratioP2
14732;SDS011;7457;50.960;6.830;2022-08-19T00:00:23;15.00;;;13.10;;
14732;SDS011;7457;50.960;6.830;2022-08-19T00:02:49;17.27;;;13.85;;
14732;SDS011;7457;50.960;6.830;2022-08-19T00:05:15;14.48;;;12.75;;
14732;SDS011;7457;50.960;6.830;2022-08-19T00:07:41;14.27;;;12.52;;
14732;SDS011;7457;50.960;6.830;2022-08-19T00:10:08;17.65;;;13.25;;
14732;SDS011;7457;50.960;6.830;2022-08-19T00:12:36;15.63;;;12.70;;
14732;SDS011;7457;50.960;6.830;2022-08-19T00:15:03;13.07;;;11.73;;
14732;SDS011;7457;50.960;6.830;2022-08-19T00:17:30;16.52;;;12.35;;
14732;SDS011;7457;50.960;6.830;2022-08-19T00:19:55;14.82;;;12.10;;
14732;SDS011;7457;50.960;6.830;2022-08-19T00:22:21;14.98;;;13.13;;
14732;SDS011;7457;50.960;6.830;2022-08-19T00:24:47;16.27;;;13.45;;
14732;SDS011;7457;50.960;6.830;2022-08-19T00:27:13;13.90;;;12.00;;
14732;SDS011;7457;50.960;6.830;2022-08-19T00:29:38;19.27;;;13.63;;
14732;SDS011;7457;50.960;6.830;2022-08-19T00:32:04;18.75;;;14.25;;
14732;SDS011;7457;50.960;6.830;2022-08-19T00:34:31;17.88;;;15.02;;
14732;SDS011;7457;50.960;6.830;2022-08-19T00:36:57;17.35;;;14.57;;
14732;SDS011;7457;50.960;6.830;2022-08-19T00:39:24;18.83;;;14.05;;
14732;SDS011;7457;50.960;6.830;2022-08-19T00:41:50;19.00;;;13.80;;
14732;SDS011;7457;50.960;6.830;2022-08-19T00:44:23;16.80;;;13.75;;
14732;SDS011;7457;50.960;6.830;2022-08-19T00:46:52;16.80;;;13.40;;
14732;SDS011;7457;50.960;6.830;2022-08-19T00:49:23;16.58;;;12.90;;
14732;SDS011;7457;50.960;6.830;2022-08-19T00:52:11;14.70;;;13.20;;
14732;SDS011;7457;50.960;6.830;2022-08-19T00:54:40;14.93;;;13.35;;
14732;SDS011;7457;50.960;6.830;2022-08-19T00:57:13;15.38;;;13.60;;
14732;SDS011;7457;50.960;6.830;2022-08-19T00:59:44;20.60;;;14.90;;
14732;SDS011;7457;50.960;6.830;2022-08-19T01:02:13;14.90;;;13.40;;
14732;SDS011;7457;50.960;6.830;2022-08-19T01:04:40;17.40;;;13.80;;
14732;SDS011;7457;50.960;6.830;2022-08-19T01:07:05;15.20;;;13.50;;
14732;SDS011;7457;50.960;6.830;2022-08-19T01:09:32;15.77;;;14.05;;
14732;SDS011;7457;50.960;6.830;2022-08-19T01:11:58;16.55;;;14.43;;
14732;SDS011;7457;50.960;6.830;2022-08-19T01:14:23;18.58;;;15.60;;
14732;SDS011;7457;50.960;6.830;2022-08-19T01:16:50;18.90;;;15.18;;
14732;SDS011;7457;50.960;6.830;2022-08-19T01:19:29;16.08;;;14.40;;
14732;SDS011;7457;50.960;6.830;2022-08-19T01:22:12;18.88;;;14.85;;
14732;SDS011;7457;50.960;6.830;2022-08-19T01:24:44;18.35;;;14.77;;
14732;SDS011;7457;50.960;6.830;2022-08-19T01:27:10;16.27;;;14.57;;
14732;SDS011;7457;50.960;6.830;2022-08-19T01:29:38;15.38;;;13.77;;
14732;SDS011;7457;50.960;6.830;2022-08-19T01:32:07;23.75;;;15.90;;
14732;SDS011;7457;50.960;6.830;2022-08-19T01:34:35;18.25;;;14.70;;
14732;SDS011;7457;50.960;6.830;2022-08-19T01:37:05;17.92;;;14.48;;
14732;SDS011;7457;50.960;6.830;2022-08-19T01:39:33;19.23;;;14.77;;
14732;SDS011;7457;50.960;6.830;2022-08-19T01:41:59;20.48;;;15.23;;
14732;SDS011;7457;50.960;6.830;2022-08-19T01:44:28;18.02;;;14.95;;
14732;SDS011;7457;50.960;6.830;2022-08-19T01:46:54;19.92;;;14.70;;
14732;SDS011;7457;50.960;6.830;2022-08-19T01:49:21;20.45;;;14.40;;
14732;SDS011;7457;50.960;6.830;2022-08-19T01:51:48;18.88;;;15.32;;
14732;SDS011;7457;50.960;6.830;2022-08-19T01:54:15;17.95;;;15.00;;
14732;SDS011;7457;50.960;6.830;2022-08-19T01:56:41;20.38;;;14.77;;
14732;SDS011;7457;50.960;6.830;2022-08-19T01:59:12;23.27;;;15.95;;
14732;SDS011;7457;50.960;6.830;2022-08-19T02:01:41;17.60;;;15.48;;
14732;SDS011;7457;50.960;6.830;2022-08-19T02:04:06;25.42;;;16.27;;
14732;SDS011;7457;50.960;6.830;2022-08-19T02:06:32;26.70;;;17.13;;
14732;SDS011;7457;50.960;6.830;2022-08-19T02:08:58;19.65;;;16.98;;
14732;SDS011;7457;50.960;6.830;2022-08-19T02:11:28;20.30;;;15.40;;
14732;SDS011;7457;50.960;6.830;2022-08-19T02:13:57;24.15;;;16.38;;
14732;SDS011;7457;50.960;6.830;2022-08-19T02:16:23;21.30;;;17.13;;
14732;SDS011;7457;50.960;6.830;2022-08-19T02:18:49;19.23;;;16.17;;
14732;SDS011;7457;50.960;6.830;2022-08-19T02:21:18;27.45;;;17.90;;
14732;SDS011;7457;50.960;6.830;2022-08-19T02:23:45;21.60;;;17.45;;
14732;SDS011;7457;50.960;6.830;2022-08-19T02:26:11;19.95;;;15.90;;
14732;SDS011;7457;50.960;6.830;2022-08-19T02:28:38;20.75;;;15.88;;
14732;SDS011;7457;50.960;6.830;2022-08-19T02:31:13;18.73;;;15.70;;
14732;SDS011;7457;50.960;6.830;2022-08-19T02:33:41;19.77;;;15.50;;
14732;SDS011;7457;50.960;6.830;2022-08-19T02:36:07;21.85;;;16.05;;
14732;SDS011;7457;50.960;6.830;2022-08-19T02:38:34;19.13;;;15.13;;
14732;SDS011;7457;50.960;6.830;2022-08-19T02:41:03;18.02;;;14.30;;
14732;SDS011;7457;50.960;6.830;2022-08-19T02:43:33;22.67;;;16.00;;
14732;SDS011;7457;50.960;6.830;2022-08-19T02:46:19;19.85;;;15.98;;
14732;SDS011;7457;50.960;6.830;2022-08-19T02:48:57;20.38;;;16.58;;
14732;SDS011;7457;50.960;6.830;2022-08-19T02:51:30;18.40;;;15.45;;
14732;SDS011;7457;50.960;6.830;2022-08-19T02:53:58;18.85;;;16.65;;
14732;SDS011;7457;50.960;6.830;2022-08-19T02:56:25;18.30;;;16.30;;
14732;SDS011;7457;50.960;6.830;2022-08-19T02:58:52;20.98;;;16.80;;
14732;SDS011;7457;50.960;6.830;2022-08-19T03:01:30;18.67;;;16.27;;
14732;SDS011;7457;50.960;6.830;2022-08-19T03:03:57;17.67;;;14.65;;
14732;SDS011;7457;50.960;6.830;2022-08-19T03:06:25;16.75;;;14.55;;
14732;SDS011;7457;50.960;6.830;2022-08-19T03:08:52;26.88;;;14.70;;
14732;SDS011;7457;50.960;6.830;2022-08-19T03:11:19;18.52;;;14.48;;
14732;SDS011;7457;50.960;6.830;2022-08-19T03:13:54;17.20;;;14.57;;
14732;SDS011;7457;50.960;6.830;2022-08-19T03:16:20;19.83;;;16.73;;
14732;SDS011;7457;50.960;6.830;2022-08-19T03:18:48;20.60;;;17.42;;
14732;SDS011;7457;50.960;6.830;2022-08-19T03:21:18;20.60;;;17.70;;
14732;SDS011;7457;50.960;6.830;2022-08-19T03:23:46;24.45;;;19.33;;
14732;SDS011;7457;50.960;6.830;2022-08-19T03:26:12;21.88;;;18.13;;
14732;SDS011;7457;50.960;6.830;2022-08-19T03:28:40;21.88;;;19.20;;
14732;SDS011;7457;50.960;6.830;2022-08-19T03:31:10;25.80;;;20.15;;
14732;SDS011;7457;50.960;6.830;2022-08-19T03:33:38;24.90;;;19.45;;
14732;SDS011;7457;50.960;6.830;2022-08-19T03:38:40;23.92;;;21.33;;
14732;SDS011;7457;50.960;6.830;2022-08-19T03:41:09;23.17;;;19.70;;
14732;SDS011;7457;50.960;6.830;2022-08-19T03:43:37;23.13;;;19.23;;
14732;SDS011;7457;50.960;6.830;2022-08-19T03:46:05;23.10;;;19.88;;
14732;SDS011;7457;50.960;6.830;2022-08-19T03:48:36;27.40;;;19.55;;
14732;SDS011;7457;50.960;6.830;2022-08-19T03:51:03;38.90;;;19.20;;
14732;SDS011;7457;50.960;6.830;2022-08-19T03:53:29;23.80;;;19.05;;
14732;SDS011;7457;50.960;6.830;2022-08-19T03:55:56;23.25;;;19.20;;
14732;SDS011;7457;50.960;6.830;2022-08-19T03:58:25;26.40;;;21.67;;
14732;SDS011;7457;50.960;6.830;2022-08-19T04:00:53;29.80;;;21.88;;
14732;SDS011;7457;50.960;6.830;2022-08-19T04:03:18;41.28;;;29.08;;
14732;SDS011;7457;50.960;6.830;2022-08-19T04:05:44;40.70;;;32.00;;
14732;SDS011;7457;50.960;6.830;2022-08-19T04:08:11;43.97;;;35.95;;
14732;SDS011;7457;50.960;6.830;2022-08-19T04:10:37;54.72;;;40.75;;
14732;SDS011;7457;50.960;6.830;2022-08-19T04:13:04;47.72;;;38.80;;
14732;SDS011;7457;50.960;6.830;2022-08-19T04:15:31;50.42;;;38.97;;
14732;SDS011;7457;50.960;6.830;2022-08-19T04:18:00;60.35;;;42.53;;
14732;SDS011;7457;50.960;6.830;2022-08-19T04:20:26;49.45;;;35.60;;
14732;SDS011;7457;50.960;6.830;2022-08-19T04:22:52;60.20;;;42.53;;
14732;SDS011;7457;50.960;6.830;2022-08-19T04:25:18;62.63;;;41.30;;
14732;SDS011;7457;50.960;6.830;2022-08-19T04:27:43;54.88;;;40.92;;
14732;SDS011;7457;50.960;6.830;2022-08-19T04:30:11;52.33;;;40.83;;
14732;SDS011;7457;50.960;6.830;2022-08-19T04:32:38;55.42;;;39.17;;
14732;SDS011;7457;50.960;6.830;2022-08-19T04:35:04;54.80;;;41.85;;
14732;SDS011;7457;50.960;6.830;2022-08-19T04:37:30;55.10;;;40.90;;
14732;SDS011;7457;50.960;6.830;2022-08-19T04:39:58;56.28;;;39.83;;
14732;SDS011;7457;50.960;6.830;2022-08-19T04:42:43;51.38;;;38.65;;
14732;SDS011;7457;50.960;6.830;2022-08-19T04:45:10;47.17;;;36.55;;
14732;SDS011;7457;50.960;6.830;2022-08-19T04:47:38;51.80;;;37.72;;
14732;SDS011;7457;50.960;6.830;2022-08-19T04:50:05;51.67;;;37.40;;
14732;SDS011;7457;50.960;6.830;2022-08-19T04:52:32;51.17;;;36.17;;
14732;SDS011;7457;50.960;6.830;2022-08-19T04:54:58;53.42;;;38.58;;
14732;SDS011;7457;50.960;6.830;2022-08-19T04:57:24;52.58;;;36.67;;
14732;SDS011;7457;50.960;6.830;2022-08-19T04:59:54;45.92;;;32.97;;
14732;SDS011;7457;50.960;6.830;2022-08-19T05:02:20;48.90;;;36.42;;
14732;SDS011;7457;50.960;6.830;2022-08-19T05:04:50;54.08;;;34.70;;
14732;SDS011;7457;50.960;6.830;2022-08-19T05:07:21;55.20;;;36.30;;
14732;SDS011;7457;50.960;6.830;2022-08-19T05:09:46;48.45;;;36.28;;
14732;SDS011;7457;50.960;6.830;2022-08-19T05:12:12;50.95;;;35.67;;
14732;SDS011;7457;50.960;6.830;2022-08-19T05:14:38;49.20;;;37.58;;
14732;SDS011;7457;50.960;6.830;2022-08-19T05:17:03;52.85;;;37.65;;
14732;SDS011;7457;50.960;6.830;2022-08-19T05:19:29;52.63;;;37.80;;
14732;SDS011;7457;50.960;6.830;2022-08-19T05:22:13;52.53;;;36.95;;
14732;SDS011;7457;50.960;6.830;2022-08-19T05:24:57;45.53;;;33.42;;
14732;SDS011;7457;50.960;6.830;2022-08-19T05:27:23;46.08;;;34.90;;
14732;SDS011;7457;50.960;6.830;2022-08-19T05:29:49;45.72;;;33.97;;
14732;SDS011;7457;50.960;6.830;2022-08-19T05:32:15;44.58;;;33.42;;
14732;SDS011;7457;50.960;6.830;2022-08-19T05:34:41;48.10;;;34.47;;
14732;SDS011;7457;50.960;6.830;2022-08-19T05:37:07;47.47;;;35.35;;
14732;SDS011;7457;50.960;6.830;2022-08-19T05:39:34;43.53;;;32.92;;
14732;SDS011;7457;50.960;6.830;2022-08-19T05:42:05;46.55;;;35.30;;
14732;SDS011;7457;50.960;6.830;2022-08-19T05:44:34;46.10;;;33.22;;
14732;SDS011;7457;50.960;6.830;2022-08-19T05:47:02;42.80;;;32.75;;
14732;SDS011;7457;50.960;6.830;2022-08-19T05:49:30;43.33;;;33.38;;
14732;SDS011;7457;50.960;6.830;2022-08-19T05:51:57;46.78;;;32.55;;
14732;SDS011;7457;50.960;6.830;2022-08-19T05:54:24;51.22;;;34.88;;
14732;SDS011;7457;50.960;6.830;2022-08-19T05:56:50;43.83;;;32.80;;
14732;SDS011;7457;50.960;6.830;2022-08-19T05:59:17;48.78;;;33.88;;
14732;SDS011;7457;50.960;6.830;2022-08-19T06:01:46;47.65;;;34.83;;
14732;SDS011;7457;50.960;6.830;2022-08-19T06:04:15;47.75;;;34.90;;
14732;SDS011;7457;50.960;6.830;2022-08-19T06:06:43;45.65;;;32.13;;
14732;SDS011;7457;50.960;6.830;2022-08-19T06:09:11;51.25;;;34.47;;
14732;SDS011;7457;50.960;6.830;2022-08-19T06:14:30;45.20;;;35.08;;
14732;SDS011;7457;50.960;6.830;2022-08-19T06:16:58;51.22;;;35.83;;
14732;SDS011;7457;50.960;6.830;2022-08-19T06:19:26;47.83;;;35.25;;
14732;SDS011;7457;50.960;6.830;2022-08-19T06:21:54;44.33;;;32.17;;
14732;SDS011;7457;50.960;6.830;2022-08-19T06:24:21;46.85;;;33.25;;
14732;SDS011;7457;50.960;6.830;2022-08-19T06:26:49;52.38;;;34.30;;
14732;SDS011;7457;50.960;6.830;2022-08-19T06:29:18;49.97;;;34.17;;
14732;SDS011;7457;50.960;6.830;2022-08-19T06:31:46;49.30;;;31.25;;
14732;SDS011;7457;50.960;6.830;2022-08-19T06:34:16;46.42;;;31.65;;
14732;SDS011;7457;50.960;6.830;2022-08-19T06:36:44;42.08;;;30.27;;
14732;SDS011;7457;50.960;6.830;2022-08-19T06:39:13;44.92;;;32.90;;
14732;SDS011;7457;50.960;6.830;2022-08-19T06:41:42;50.45;;;30.70;;
14732;SDS011;7457;50.960;6.830;2022-08-19T06:44:10;38.78;;;31.20;;
14732;SDS011;7457;50.960;6.830;2022-08-19T06:46:36;44.10;;;30.42;;
14732;SDS011;7457;50.960;6.830;2022-08-19T06:49:03;44.38;;;31.80;;
14732;SDS011;7457;50.960;6.830;2022-08-19T06:51:29;41.80;;;29.60;;
14732;SDS011;7457;50.960;6.830;2022-08-19T06:53:56;40.67;;;30.05;;
14732;SDS011;7457;50.960;6.830;2022-08-19T06:56:23;40.20;;;30.90;;
14732;SDS011;7457;50.960;6.830;2022-08-19T06:58:56;46.22;;;31.52;;
14732;SDS011;7457;50.960;6.830;2022-08-19T07:01:22;43.05;;;32.20;;
14732;SDS011;7457;50.960;6.830;2022-08-19T07:03:47;42.58;;;32.50;;
14732;SDS011;7457;50.960;6.830;2022-08-19T07:06:14;42.90;;;30.73;;
14732;SDS011;7457;50.960;6.830;2022-08-19T07:08:43;46.90;;;33.22;;
14732;SDS011;7457;50.960;6.830;2022-08-19T07:11:11;40.67;;;29.60;;
14732;SDS011;7457;50.960;6.830;2022-08-19T07:13:38;48.60;;;32.92;;
14732;SDS011;7457;50.960;6.830;2022-08-19T07:16:08;51.92;;;33.88;;
14732;SDS011;7457;50.960;6.830;2022-08-19T07:18:35;43.22;;;32.40;;
14732;SDS011;7457;50.960;6.830;2022-08-19T07:21:12;47.05;;;32.67;;
14732;SDS011;7457;50.960;6.830;2022-08-19T07:23:39;48.88;;;34.15;;
14732;SDS011;7457;50.960;6.830;2022-08-19T07:26:09;50.88;;;34.17;;
14732;SDS011;7457;50.960;6.830;2022-08-19T07:28:38;48.53;;;34.38;;
14732;SDS011;7457;50.960;6.830;2022-08-19T07:31:07;48.15;;;33.45;;
14732;SDS011;7457;50.960;6.830;2022-08-19T07:33:35;49.10;;;33.53;;
14732;SDS011;7457;50.960;6.830;2022-08-19T07:36:04;49.63;;;35.15;;
14732;SDS011;7457;50.960;6.830;2022-08-19T07:38:31;53.28;;;36.47;;
14732;SDS011;7457;50.960;6.830;2022-08-19T07:40:57;50.97;;;35.05;;
14732;SDS011;7457;50.960;6.830;2022-08-19T07:43:23;55.90;;;38.42;;
14732;SDS011;7457;50.960;6.830;2022-08-19T07:45:53;58.20;;;38.20;;
14732;SDS011;7457;50.960;6.830;2022-08-19T07:48:23;60.50;;;37.20;;
14732;SDS011;7457;50.960;6.830;2022-08-19T07:50:52;59.95;;;38.30;;
14732;SDS011;7457;50.960;6.830;2022-08-19T07:53:19;60.72;;;38.35;;
14732;SDS011;7457;50.960;6.830;2022-08-19T07:55:45;56.13;;;38.75;;
14732;SDS011;7457;50.960;6.830;2022-08-19T07:58:12;51.30;;;35.00;;
14732;SDS011;7457;50.960;6.830;2022-08-19T08:00:40;56.38;;;38.50;;
14732;SDS011;7457;50.960;6.830;2022-08-19T08:03:07;55.42;;;35.83;;
14732;SDS011;7457;50.960;6.830;2022-08-19T08:05:33;53.15;;;34.95;;
14732;SDS011;7457;50.960;6.830;2022-08-19T08:08:17;57.25;;;35.47;;
14732;SDS011;7457;50.960;6.830;2022-08-19T08:11:02;55.38;;;35.80;;
14732;SDS011;7457;50.960;6.830;2022-08-19T08:13:28;56.42;;;38.33;;
14732;SDS011;7457;50.960;6.830;2022-08-19T08:15:55;54.33;;;35.67;;
14732;SDS011;7457;50.960;6.830;2022-08-19T08:18:24;51.10;;;34.08;;
14732;SDS011;7457;50.960;6.830;2022-08-19T08:20:50;53.85;;;34.30;;
14732;SDS011;7457;50.960;6.830;2022-08-19T08:23:16;54.70;;;34.65;;
14732;SDS011;7457;50.960;6.830;2022-08-19T08:25:47;52.67;;;33.50;;
14732;SDS011;7457;50.960;6.830;2022-08-19T08:28:14;54.80;;;35.83;;
14732;SDS011;7457;50.960;6.830;2022-08-19T08:30:41;57.72;;;34.47;;
14732;SDS011;7457;50.960;6.830;2022-08-19T08:33:07;51.47;;;35.50;;
14732;SDS011;7457;50.960;6.830;2022-08-19T08:35:33;52.22;;;35.40;;
14732;SDS011;7457;50.960;6.830;2022-08-19T08:37:59;51.92;;;34.67;;
14732;SDS011;7457;50.960;6.830;2022-08-19T08:46:33;47.67;;;32.25;;
14732;SDS011;7457;50.960;6.830;2022-08-19T08:48:49;41.65;;;31.10;;
14732;SDS011;7457;50.960;6.830;2022-08-19T08:51:20;43.95;;;30.52;;
14732;SDS011;7457;50.960;6.830;2022-08-19T08:53:57;41.63;;;29.00;;
14732;SDS011;7457;50.960;6.830;2022-08-19T08:56:25;39.45;;;29.13;;
14732;SDS011;7457;50.960;6.830;2022-08-19T08:58:54;42.15;;;29.05;;
14732;SDS011;7457;50.960;6.830;2022-08-19T09:01:33;39.20;;;28.27;;
14732;SDS011;7457;50.960;6.830;2022-08-19T09:03:59;39.20;;;28.17;;
14732;SDS011;7457;50.960;6.830;2022-08-19T09:06:29;42.30;;;30.55;;
14732;SDS011;7457;50.960;6.830;2022-08-19T09:09:26;39.35;;;29.15;;
14732;SDS011;7457;50.960;6.830;2022-08-19T09:16:59;37.08;;;23.98;;
14732;SDS011;7457;50.960;6.830;2022-08-19T09:19:28;31.90;;;25.02;;
14732;SDS011;7457;50.960;6.830;2022-08-19T09:21:55;39.25;;;24.88;;
14732;SDS011;7457;50.960;6.830;2022-08-19T09:24:20;31.77;;;24.83;;
14732;SDS011;7457;50.960;6.830;2022-08-19T09:26:46;32.90;;;23.83;;
14732;SDS011;7457;50.960;6.830;2022-08-19T09:29:12;31.48;;;23.02;;
14732;SDS011;7457;50.960;6.830;2022-08-19T09:31:37;30.95;;;22.92;;
14732;SDS011;7457;50.960;6.830;2022-08-19T09:34:03;30.35;;;21.38;;
14732;SDS011;7457;50.960;6.830;2022-08-19T09:36:29;23.52;;;17.95;;
14732;SDS011;7457;50.960;6.830;2022-08-19T09:39:01;27.23;;;20.77;;
14732;SDS011;7457;50.960;6.830;2022-08-19T09:41:30;23.75;;;17.77;;
14732;SDS011;7457;50.960;6.830;2022-08-19T09:43:58;21.38;;;16.33;;
14732;SDS011;7457;50.960;6.830;2022-08-19T09:46:25;20.33;;;16.55;;
14732;SDS011;7457;50.960;6.830;2022-08-19T09:48:53;20.38;;;16.75;;
14732;SDS011;7457;50.960;6.830;2022-08-19T09:51:21;19.77;;;14.05;;
14732;SDS011;7457;50.960;6.830;2022-08-19T09:53:49;18.13;;;12.77;;
14732;SDS011;7457;50.960;6.830;2022-08-19T09:56:17;15.65;;;12.73;;
14732;SDS011;7457;50.960;6.830;2022-08-19T09:58:44;19.85;;;14.32;;
14732;SDS011;7457;50.960;6.830;2022-08-19T10:01:14;14.40;;;12.73;;
14732;SDS011;7457;50.960;6.830;2022-08-19T10:03:47;16.90;;;12.07;;
14732;SDS011;7457;50.960;6.830;2022-08-19T10:06:18;16.23;;;13.02;;
14732;SDS011;7457;50.960;6.830;2022-08-19T10:08:45;17.63;;;13.75;;
14732;SDS011;7457;50.960;6.830;2022-08-19T10:11:11;14.95;;;11.07;;
14732;SDS011;7457;50.960;6.830;2022-08-19T10:13:40;15.52;;;12.82;;
14732;SDS011;7457;50.960;6.830;2022-08-19T10:16:09;18.08;;;14.13;;
14732;SDS011;7457;50.960;6.830;2022-08-19T10:18:38;22.08;;;15.98;;
14732;SDS011;7457;50.960;6.830;2022-08-19T10:21:26;17.60;;;15.23;;
14732;SDS011;7457;50.960;6.830;2022-08-19T10:23:55;18.33;;;15.13;;
14732;SDS011;7457;50.960;6.830;2022-08-19T10:26:30;17.98;;;14.75;;
14732;SDS011;7457;50.960;6.830;2022-08-19T10:28:58;16.45;;;14.35;;
14732;SDS011;7457;50.960;6.830;2022-08-19T10:31:25;18.23;;;16.10;;
14732;SDS011;7457;50.960;6.830;2022-08-19T10:33:53;19.33;;;15.85;;
14732;SDS011;7457;50.960;6.830;2022-08-19T10:36:24;21.15;;;16.15;;
14732;SDS011;7457;50.960;6.830;2022-08-19T10:38:52;18.13;;;14.60;;
14732;SDS011;7457;50.960;6.830;2022-08-19T10:41:23;19.17;;;15.98;;
14732;SDS011;7457;50.960;6.830;2022-08-19T10:43:58;17.23;;;15.07;;
14732;SDS011;7457;50.960;6.830;2022-08-19T10:46:26;17.52;;;15.60;;
14732;SDS011;7457;50.960;6.830;2022-08-19T10:48:53;17.55;;;15.13;;
14732;SDS011;7457;50.960;6.830;2022-08-19T10:51:19;15.40;;;13.75;;
14732;SDS011;7457;50.960;6.830;2022-08-19T10:54:04;14.95;;;12.05;;
14732;SDS011;7457;50.960;6.830;2022-08-19T10:56:31;12.38;;;11.07;;
14732;SDS011;7457;50.960;6.830;2022-08-19T10:59:18;12.05;;;10.65;;
14732;SDS011;7457;50.960;6.830;2022-08-19T11:01:45;14.70;;;11.00;;
14732;SDS011;7457;50.960;6.830;2022-08-19T11:04:12;13.50;;;11.20;;
14732;SDS011;7457;50.960;6.830;2022-08-19T11:06:40;14.68;;;12.02;;
14732;SDS011;7457;50.960;6.830;2022-08-19T11:09:08;12.32;;;10.50;;
14732;SDS011;7457;50.960;6.830;2022-08-19T11:11:35;17.58;;;12.93;;
14732;SDS011;7457;50.960;6.830;2022-08-19T11:14:05;14.00;;;11.52;;
14732;SDS011;7457;50.960;6.830;2022-08-19T11:16:39;12.23;;;10.45;;
14732;SDS011;7457;50.960;6.830;2022-08-19T11:19:05;11.70;;;10.60;;
14732;SDS011;7457;50.960;6.830;2022-08-19T11:21:37;10.38;;;9.18;;
14732;SDS011;7457;50.960;6.830;2022-08-19T11:24:06;11.70;;;10.27;;
14732;SDS011;7457;50.960;6.830;2022-08-19T11:26:34;11.23;;;10.23;;
14732;SDS011;7457;50.960;6.830;2022-08-19T11:29:01;13.40;;;9.48;;
14732;SDS011;7457;50.960;6.830;2022-08-19T11:31:31;11.23;;;9.60;;
14732;SDS011;7457;50.960;6.830;2022-08-19T11:33:59;11.23;;;9.50;;
14732;SDS011;7457;50.960;6.830;2022-08-19T11:36:26;13.80;;;10.35;;
14732;SDS011;7457;50.960;6.830;2022-08-19T11:38:53;12.88;;;10.18;;
14732;SDS011;7457;50.960;6.830;2022-08-19T11:41:19;11.98;;;10.73;;
14732;SDS011;7457;50.960;6.830;2022-08-19T11:43:48;12.07;;;10.35;;
14732;SDS011;7457;50.960;6.830;2022-08-19T11:46:15;12.38;;;9.82;;
14732;SDS011;7457;50.960;6.830;2022-08-19T11:48:41;10.73;;;9.63;;
14732;SDS011;7457;50.960;6.830;2022-08-19T11:51:09;13.20;;;9.70;;
14732;SDS011;7457;50.960;6.830;2022-08-19T11:53:37;12.15;;;9.40;;
14732;SDS011;7457;50.960;6.830;2022-08-19T11:56:06;12.00;;;8.45;;
14732;SDS011;7457;50.960;6.830;2022-08-19T11:58:33;11.25;;;9.20;;
14732;SDS011;7457;50.960;6.830;2022-08-19T12:00:59;9.77;;;8.77;;
14732;SDS011;7457;50.960;6.830;2022-08-19T12:03:26;9.95;;;8.90;;
14732;SDS011;7457;50.960;6.830;2022-08-19T12:05:52;11.40;;;8.65;;
14732;SDS011;7457;50.960;6.830;2022-08-19T12:08:18;9.43;;;8.38;;
14732;SDS011;7457;50.960;6.830;2022-08-19T12:10:45;10.82;;;9.02;;
14732;SDS011;7457;50.960;6.830;2022-08-19T12:13:11;10.18;;;8.30;;
14732;SDS011;7457;50.960;6.830;2022-08-19T12:15:40;8.55;;;7.75;;
14732;SDS011;7457;50.960;6.830;2022-08-19T12:18:06;12.90;;;8.52;;
14732;SDS011;7457;50.960;6.830;2022-08-19T12:20:34;13.70;;;10.05;;
14732;SDS011;7457;50.960;6.830;2022-08-19T12:23:01;9.30;;;8.30;;
14732;SDS011;7457;50.960;6.830;2022-08-19T12:25:27;11.32;;;8.43;;
14732;SDS011;7457;50.960;6.830;2022-08-19T12:27:53;12.07;;;8.80;;
14732;SDS011;7457;50.960;6.830;2022-08-19T12:30:19;8.60;;;6.88;;
14732;SDS011;7457;50.960;6.830;2022-08-19T12:32:45;11.82;;;8.70;;
14732;SDS011;7457;50.960;6.830;2022-08-19T12:35:11;9.38;;;8.27;;
14732;SDS011;7457;50.960;6.830;2022-08-19T12:37:37;12.50;;;9.52;;
14732;SDS011;7457;50.960;6.830;2022-08-19T12:40:04;10.38;;;8.68;;
14732;SDS011;7457;50.960;6.830;2022-08-19T12:42:30;12.07;;;9.55;;
14732;SDS011;7457;50.960;6.830;2022-08-19T12:44:55;10.02;;;8.65;;
14732;SDS011;7457;50.960;6.830;2022-08-19T12:47:21;11.45;;;8.23;;
14732;SDS011;7457;50.960;6.830;2022-08-19T12:49:47;8.10;;;7.30;;
14732;SDS011;7457;50.960;6.830;2022-08-19T12:52:13;10.43;;;8.80;;
14732;SDS011;7457;50.960;6.830;2022-08-19T12:54:46;9.48;;;8.38;;
14732;SDS011;7457;50.960;6.830;2022-08-19T12:57:11;8.77;;;7.88;;
14732;SDS011;7457;50.960;6.830;2022-08-19T12:59:37;10.98;;;6.88;;
14732;SDS011;7457;50.960;6.830;2022-08-19T13:02:04;8.23;;;6.80;;
14732;SDS011;7457;50.960;6.830;2022-08-19T13:04:31;7.82;;;7.00;;
14732;SDS011;7457;50.960;6.830;2022-08-19T13:06:59;8.32;;;7.30;;
14732;SDS011;7457;50.960;6.830;2022-08-19T13:09:25;9.02;;;7.78;;
14732;SDS011;7457;50.960;6.830;2022-08-19T13:11:51;9.07;;;7.40;;
14732;SDS011;7457;50.960;6.830;2022-08-19T13:14:16;8.65;;;7.40;;
14732;SDS011;7457;50.960;6.830;2022-08-19T13:16:42;10.70;;;7.78;;
14732;SDS011;7457;50.960;6.830;2022-08-19T13:19:08;9.30;;;7.50;;
14732;SDS011;7457;50.960;6.830;2022-08-19T13:21:33;12.57;;;8.30;;
14732;SDS011;7457;50.960;6.830;2022-08-19T13:23:59;12.85;;;8.60;;
14732;SDS011;7457;50.960;6.830;2022-08-19T13:26:25;12.32;;;7.93;;
14732;SDS011;7457;50.960;6.830;2022-08-19T13:28:50;9.48;;;7.20;;
14732;SDS011;7457;50.960;6.830;2022-08-19T13:31:35;8.48;;;7.20;;
14732;SDS011;7457;50.960;6.830;2022-08-19T13:34:33;8.45;;;7.35;;
14732;SDS011;7457;50.960;6.830;2022-08-19T13:37:00;9.93;;;7.50;;
14732;SDS011;7457;50.960;6.830;2022-08-19T13:39:29;10.05;;;7.53;;
14732;SDS011;7457;50.960;6.830;2022-08-19T13:41:55;9.18;;;7.55;;
14732;SDS011;7457;50.960;6.830;2022-08-19T13:44:21;9.52;;;7.00;;
14732;SDS011;7457;50.960;6.830;2022-08-19T13:46:47;9.25;;;5.07;;
14732;SDS011;7457;50.960;6.830;2022-08-19T13:49:13;6.30;;;4.93;;
14732;SDS011;7457;50.960;6.830;2022-08-19T13:51:40;10.05;;;5.90;;
14732;SDS011;7457;50.960;6.830;2022-08-19T13:54:07;12.68;;;7.53;;
14732;SDS011;7457;50.960;6.830;2022-08-19T13:56:34;16.08;;;8.07;;
14732;SDS011;7457;50.960;6.830;2022-08-19T13:59:04;11.38;;;6.53;;
14732;SDS011;7457;50.960;6.830;2022-08-19T14:01:30;8.85;;;5.75;;
14732;SDS011;7457;50.960;6.830;2022-08-19T14:03:56;10.15;;;7.13;;
14732;SDS011;7457;50.960;6.830;2022-08-19T14:06:21;12.73;;;7.57;;
14732;SDS011;7457;50.960;6.830;2022-08-19T14:08:47;11.88;;;6.50;;
14732;SDS011;7457;50.960;6.830;2022-08-19T14:11:13;8.50;;;7.30;;
14732;SDS011;7457;50.960;6.830;2022-08-19T14:13:39;7.60;;;6.43;;
14732;SDS011;7457;50.960;6.830;2022-08-19T14:16:12;15.30;;;7.55;;
14732;SDS011;7457;50.960;6.830;2022-08-19T14:18:38;13.15;;;6.85;;
14732;SDS011;7457;50.960;6.830;2022-08-19T14:21:05;6.18;;;5.22;;
14732;SDS011;7457;50.960;6.830;2022-08-19T14:23:32;9.40;;;6.05;;
14732;SDS011;7457;50.960;6.830;2022-08-19T14:26:09;7.95;;;6.15;;
14732;SDS011;7457;50.960;6.830;2022-08-19T14:28:37;7.97;;;5.15;;
14732;SDS011;7457;50.960;6.830;2022-08-19T14:31:05;9.80;;;5.45;;
14732;SDS011;7457;50.960;6.830;2022-08-19T14:33:31;5.95;;;4.63;;
14732;SDS011;7457;50.960;6.830;2022-08-19T14:35:57;7.47;;;4.35;;
14732;SDS011;7457;50.960;6.830;2022-08-19T14:38:23;8.95;;;5.10;;
14732;SDS011;7457;50.960;6.830;2022-08-19T14:40:48;8.27;;;4.32;;
14732;SDS011;7457;50.960;6.830;2022-08-19T14:43:15;7.15;;;4.57;;
14732;SDS011;7457;50.960;6.830;2022-08-19T14:45:42;6.70;;;4.35;;
14732;SDS011;7457;50.960;6.830;2022-08-19T14:48:08;4.40;;;3.70;;
14732;SDS011;7457;50.960;6.830;2022-08-19T14:50:35;5.90;;;4.93;;
14732;SDS011;7457;50.960;6.830;2022-08-19T14:53:05;5.47;;;4.57;;
14732;SDS011;7457;50.960;6.830;2022-08-19T14:55:32;7.78;;;4.45;;
14732;SDS011;7457;50.960;6.830;2022-08-19T14:57:59;8.00;;;4.00;;
14732;SDS011;7457;50.960;6.830;2022-08-19T15:00:25;7.20;;;4.10;;